Belleville, Mississippi
Current Conditions -  °F | °C
As of 9:26 PM on Saturday 22 Nov 2014 (Local Time) from KHBG Reporting Station
Overcast Overcast  
Wind Chill: 62°   Ceiling: 1400
Heat Index: 62°   Visibility: 10mi
Dew Point: 57°   Wind: 7mph
Humidity: 84%   Direction: 120°ESE
Pressure: 30.01"   Gusts: NA
Location:  31.0667°N, 89.05°W
Report Text: KHBG 230326Z AUTO 12006KT 10SM OVC014 17/14 A3001 RMK AO2 T01670139
Loading
Personal Weather Stations






























Interactive Weather Map New forecast layout! Learn more

10-Day Weather Forecast

Advertisements
Track Severe Weather on mobile